Time;durP1;ratioP1;P1;durP2;ratioP2;P2;SDS_P1;SDS_P2;PMS_P1;PMS_P2;Temp;Humidity;BMP_temperature;BMP_pressure;BME280_temperature;BME280_humidity;BME280_pressure;Samples;Min_cycle;Max_cycle;Signal;HPM_P1;HPM_P2
2023/09/27 00:06:22;;;;;;;64.00;22.50;;;;;;;14.31;98.45;100880.33;133549;1303;22442;-72
2023/09/27 00:09:35;;;;;;;33.40;22.20;;;;;;;14.30;98.64;100875.95;133261;1301;22174;-73
2023/09/27 00:13:10;;;;;;;;;;;;;;;;;;;;;
2023/09/27 00:16:37;;;;;;;28.10;21.00;;;;;;;14.23;98.44;100884.38;133379;1301;23227;-71
2023/09/27 00:20:01;;;;;;;;;;;;;;;;;;;;;
2023/09/27 00:27:31;;;;;;;25.30;18.60;;;;;;;14.08;97.68;100881.14;133529;1306;22151;-72
2023/09/27 00:30:52;;;;;;;29.00;20.60;;;;;;;14.02;97.20;100878.95;133407;1306;22252;-72
2023/09/27 00:34:07;;;;;;;34.10;22.80;;;;;;;14.00;97.61;100874.65;133420;1301;22966;-73
2023/09/27 00:37:36;;;;;;;29.80;20.60;;;;;;;13.99;97.80;100876.79;133586;1303;22414;-73
2023/09/27 00:40:44;;;;;;;49.00;18.80;;;;;;;13.94;97.51;100876.09;133555;1301;22426;-74
2023/09/27 00:43:55;;;;;;;24.10;15.20;;;;;;;13.87;96.69;100873.77;133577;1303;22405;-73
2023/09/27 00:51:04;;;;;;;27.90;16.40;;;;;;;13.75;96.09;100868.77;133329;1304;22200;-74
2023/09/27 00:54:19;;;;;;;;;;;;;;;;;;;;;
2023/09/27 00:57:26;;;;;;;32.70;19.90;;;;;;;13.65;95.54;100872.67;133322;1301;22437;-73
2023/09/27 01:00:40;;;;;;;26.30;16.20;;;;;;;13.61;95.37;100878.28;133428;1304;22488;-72
2023/09/27 01:03:49;;;;;;;19.40;12.30;;;;;;;13.56;95.10;100879.30;133392;1308;22451;-71
2023/09/27 01:06:51;;;;;;;27.90;18.70;;;;;;;13.51;95.08;100880.41;133436;1305;22486;-73
2023/09/27 01:09:52;;;;;;;32.50;20.60;;;;;;;13.44;94.95;100880.58;133383;1301;22512;-75
2023/09/27 01:13:02;;;;;;;149.30;17.80;;;;;;;13.39;94.73;100879.91;133348;1303;22443;-71
2023/09/27 01:16:24;;;;;;;272.00;17.40;;;;;;;13.34;94.85;100879.55;133384;1303;22252;-73
2023/09/27 01:19:29;;;;;;;97.20;12.70;;;;;;;13.30;95.43;100878.61;133382;1308;22243;-74
2023/09/27 01:23:03;;;;;;;174.50;12.00;;;;;;;13.27;95.43;100877.20;133410;1303;22453;-73
2023/09/27 01:26:12;;;;;;;137.50;12.40;;;;;;;13.19;95.19;100878.91;133391;1301;22274;-71
2023/09/27 01:29:22;;;;;;;28.10;18.80;;;;;;;13.11;95.13;100873.14;133378;1302;22541;-73
2023/09/27 01:32:26;;;;;;;36.90;20.10;;;;;;;13.03;94.79;100873.34;133191;1305;23307;-72
2023/09/27 01:35:56;;;;;;;;;;;;;;;;;;;;;
2023/09/27 01:39:19;;;;;;;;;;;;;;;;;;;;;
2023/09/27 01:42:43;;;;;;;;;;;;;;;;;;;;;
2023/09/27 01:46:36;;;;;;;24.10;14.80;;;;;;;12.78;94.58;100875.22;133283;1307;22311;-72
2023/09/27 01:49:40;;;;;;;16.10;13.40;;;;;;;12.74;94.59;100880.89;133398;1308;22407;-72
2023/09/27 01:52:54;;;;;;;47.40;14.00;;;;;;;12.73;94.88;100881.16;133346;1303;22940;-73
2023/09/27 01:56:04;;;;;;;38.10;10.50;;;;;;;12.70;94.68;100874.89;133355;1308;22354;-73
2023/09/27 01:59:19;;;;;;;47.20;11.00;;;;;;;12.67;94.78;100877.67;133284;1308;22824;-72
2023/09/27 02:02:28;;;;;;;54.00;10.20;;;;;;;12.62;94.75;100873.30;133313;1308;22531;-72
2023/09/27 02:05:42;;;;;;;34.10;10.10;;;;;;;12.56;94.74;100872.59;133268;1303;23106;-72
2023/09/27 02:09:06;;;;;;;62.40;9.40;;;;;;;12.54;95.02;100872.08;133356;1307;22269;-74
2023/09/27 02:12:40;;;;;;;;;;;;;;;;;;;;;
2023/09/27 02:15:59;;;;;;;;;;;;;;;;;;;;;
2023/09/27 02:19:23;;;;;;;24.90;10.40;;;;;;;12.39;94.63;100870.13;133264;1304;22262;-72
2023/09/27 02:22:30;;;;;;;16.90;11.00;;;;;;;12.35;94.68;100868.77;133284;1307;22314;-73
2023/09/27 02:26:18;;;;;;;;;;;;;;;;;;;;;
2023/09/27 02:29:53;;;;;;;;;;;;;;;;;;;;;
2023/09/27 02:33:00;;;;;;;54.70;9.90;;;;;;;12.31;95.07;100874.21;133343;1303;23167;-72
2023/09/27 02:36:54;;;;;;;;;;;;;;;;;;;;;
2023/09/27 02:40:17;;;;;;;21.60;11.10;;;;;;;12.25;94.80;100868.37;133349;1307;22997;-71
2023/09/27 02:43:55;;;;;;;15.10;11.10;;;;;;;12.23;94.67;100876.96;133283;1308;22444;-73
2023/09/27 02:47:12;;;;;;;;;;;;;;;;;;;;;
2023/09/27 02:50:44;;;;;;;20.40;10.30;;;;;;;12.18;94.71;100882.45;133342;1306;23235;-71
2023/09/27 02:54:14;;;;;;;33.90;11.50;;;;;;;12.12;94.56;100883.44;133343;1308;23186;-72
2023/09/27 02:57:53;;;;;;;;;;;;;;;;;;;;;
2023/09/27 03:01:09;;;;;;;;;;;;;;;;;;;;;
2023/09/27 03:04:53;;;;;;;;;;;;;;;;;;;;;
2023/09/27 03:08:35;;;;;;;;;;;;;;;;;;;;;
2023/09/27 03:11:53;;;;;;;20.30;10.50;;;;;;;11.92;95.11;100882.98;133348;1302;22485;-71
2023/09/27 03:14:59;;;;;;;33.40;11.50;;;;;;;11.89;95.22;100885.62;133368;1306;22379;-73
2023/09/27 03:18:08;;;;;;;45.60;11.70;;;;;;;11.86;95.29;100881.14;133321;1303;22391;-72
2023/09/27 03:21:32;;;;;;;46.40;12.00;;;;;;;11.84;95.46;100881.41;133393;1303;22294;-72
2023/09/27 03:24:46;;;;;;;;;;;;;;;;;;;;;
2023/09/27 03:27:59;;;;;;;25.00;11.80;;;;;;;11.81;95.53;100880.69;133378;1307;22454;-72
2023/09/27 03:31:03;;;;;;;46.40;12.00;;;;;;;11.79;95.78;100880.25;133310;1304;22424;-71
2023/09/27 03:34:22;;;;;;;37.90;12.40;;;;;;;11.78;96.06;100881.23;133385;1302;23446;-74
2023/09/27 03:37:56;;;;;;;;;;;;;;;;;;;;;
2023/09/27 03:41:39;;;;;;;;;;;;;;;;;;;;;
2023/09/27 03:45:16;;;;;;;;;;;;;;;;;;;;;
2023/09/27 03:48:33;;;;;;;42.00;12.10;;;;;;;11.74;96.45;100876.59;133392;1303;22460;-72
2023/09/27 03:52:18;;;;;;;33.00;11.30;;;;;;;11.72;96.14;100878.84;133506;1305;22230;-71
2023/09/27 03:55:35;;;;;;;;;;;;;;;;;;;;;
2023/09/27 03:59:44;;;;;;;17.60;11.40;;;;;;;11.66;96.41;100877.37;133489;1304;22393;-72
2023/09/27 04:02:40;;;;;;;;;;;;;;;;;;;;;
2023/09/27 04:06:14;;;;;;;29.40;11.40;;;;;;;11.72;96.81;100882.05;133369;1305;22796;-72
2023/09/27 04:09:20;;;;;;;23.60;11.30;;;;;;;11.72;96.93;100879.30;133459;1301;23487;-73
2023/09/27 04:12:24;;;;;;;32.30;11.70;;;;;;;11.73;97.05;100874.95;133322;1307;22430;-72
2023/09/27 04:15:55;;;;;;;39.90;11.10;;;;;;;11.69;96.83;100877.83;133511;1301;22628;-72
2023/09/27 04:18:57;;;;;;;23.60;11.10;;;;;;;11.65;96.52;100881.38;133461;1308;22809;-72
2023/09/27 04:22:09;;;;;;;38.00;11.30;;;;;;;11.61;96.48;100884.08;133510;1301;22419;-71
2023/09/27 04:25:41;;;;;;;29.70;11.10;;;;;;;11.58;96.35;100885.35;133505;1305;22444;-71
2023/09/27 04:28:50;;;;;;;19.90;10.90;;;;;;;11.56;96.52;100882.34;133429;1308;22243;-71
2023/09/27 04:32:16;;;;;;;31.50;11.00;;;;;;;11.55;96.44;100882.23;133508;1303;23292;-72
2023/09/27 04:35:42;;;;;;;46.40;13.00;;;;;;;11.55;96.71;100883.52;133581;1307;23126;-71
2023/09/27 04:38:50;;;;;;;19.30;11.30;;;;;;;11.53;96.96;100884.05;133439;1301;23192;-74
2023/09/27 04:42:13;;;;;;;63.80;12.90;;;;;;;11.52;96.86;100882.80;133559;1302;22458;-74
2023/09/27 04:45:32;;;;;;;43.00;12.90;;;;;;;11.51;97.03;100887.43;133526;1301;22455;-72
2023/09/27 04:49:38;;;;;;;40.00;13.90;;;;;;;11.55;97.46;100892.75;133529;1304;22518;-70
2023/09/27 04:53:38;;;;;;;;;;;;;;;;;;;;;
2023/09/27 04:57:06;;;;;;;42.10;13.40;;;;;;;11.60;97.43;100897.73;133400;1301;22461;-74
2023/09/27 05:00:32;;;;;;;41.40;12.60;;;;;;;11.58;97.33;100900.20;133555;1301;22741;-74
2023/09/27 05:03:33;;;;;;;43.30;13.90;;;;;;;11.58;97.22;100904.25;133536;1303;23641;-76
2023/09/27 05:06:58;;;;;;;;;;;;;;;;;;;;;
2023/09/27 05:10:35;;;;;;;38.00;14.30;;;;;;;11.60;97.36;100908.16;133527;1307;22950;-74
2023/09/27 05:13:41;;;;;;;44.10;16.20;;;;;;;11.63;97.29;100907.98;133585;1301;23067;-75
2023/09/27 05:17:35;;;;;;;;;;;;;;;;;;;;;
2023/09/27 05:21:39;;;;;;;37.90;15.50;;;;;;;11.74;97.52;100908.39;133172;1306;22225;-76
2023/09/27 05:25:14;;;;;;;51.80;15.50;;;;;;;11.81;97.94;100908.15;133361;1301;22462;-75
2023/09/27 05:32:46;;;;;;;68.00;14.80;;;;;;;11.97;98.37;100908.69;133391;1303;22232;-75
2023/09/27 05:36:10;;;;;;;35.80;16.70;;;;;;;12.07;98.88;100909.47;133492;1301;22454;-75
2023/09/27 05:39:23;;;;;;;50.80;15.90;;;;;;;12.29;99.54;100915.22;133322;1303;22409;-76
2023/09/27 05:42:47;;;;;;;28.50;17.00;;;;;;;12.47;99.69;100907.82;133426;1302;22435;-75
2023/09/27 05:46:29;;;;;;;36.90;17.30;;;;;;;12.69;99.92;100909.90;133353;1302;22285;-76
2023/09/27 05:50:22;;;;;;;31.20;16.70;;;;;;;13.09;100.00;100914.99;133230;1301;23023;-76
2023/09/27 05:53:23;;;;;;;20.10;17.50;;;;;;;13.60;100.00;100914.41;133409;1302;22410;-76
2023/09/27 05:56:37;;;;;;;21.50;18.20;;;;;;;14.04;100.00;100917.96;133431;1303;22382;-78
2023/09/27 06:00:51;;;;;;;;;;;;;;;;;;;;;
2023/09/27 06:05:09;;;;;;;19.20;17.20;;;;;;;15.23;100.00;100913.32;133321;1301;22683;-75
2023/09/27 06:08:12;;;;;;;19.10;15.90;;;;;;;15.93;100.00;100914.89;133397;1302;22507;-72
2023/09/27 06:11:24;;;;;;;20.00;17.00;;;;;;;16.61;100.00;100914.38;133495;1303;22466;-74
2023/09/27 06:14:54;;;;;;;16.40;14.80;;;;;;;17.17;99.14;100920.08;133338;1301;23188;-74
2023/09/27 06:18:07;;;;;;;16.20;14.60;;;;;;;17.63;97.64;100926.27;133454;1302;22379;-74
2023/09/27 06:21:34;;;;;;;;;;;;;;;;;;;;;
2023/09/27 06:25:16;;;;;;;17.40;13.40;;;;;;;18.82;96.58;100932.04;133468;1301;22923;-74
2023/09/27 06:32:21;;;;;;;13.30;11.80;;;;;;;19.86;94.07;100938.27;133300;1301;22246;-76
2023/09/27 06:35:33;;;;;;;14.50;12.60;;;;;;;20.39;92.64;100940.04;133438;1302;22407;-76
2023/09/27 06:39:29;;;;;;;13.70;11.70;;;;;;;20.82;91.10;100940.42;133404;1300;22505;-76
2023/09/27 06:43:32;;;;;;;;;;;;;;;;;;;;;
2023/09/27 06:46:58;;;;;;;13.50;12.20;;;;;;;21.72;88.00;100942.45;133332;1304;22504;-76
2023/09/27 06:50:34;;;;;;;18.60;12.90;;;;;;;21.95;86.26;100944.21;133452;1308;23083;-76
2023/09/27 06:54:02;;;;;;;13.10;11.20;;;;;;;22.26;85.22;100948.84;133250;1304;444474;-76
2023/09/27 06:58:03;;;;;;;16.50;13.40;;;;;;;22.63;83.97;100952.23;133499;1303;22497;-76
2023/09/27 07:01:45;;;;;;;13.20;10.50;;;;;;;22.86;82.05;100958.23;133287;1301;23138;-77
2023/09/27 07:05:13;;;;;;;13.70;10.00;;;;;;;23.16;81.48;100962.39;133481;1301;22448;-77
2023/09/27 07:13:15;;;;;;;;;;;;;;;;;;;;;
2023/09/27 07:17:23;;;;;;;;;;;;;;;;;;;;;
2023/09/27 07:21:02;;;;;;;12.20;9.70;;;;;;;24.04;77.05;100984.02;133486;1304;22421;-77
2023/09/27 07:25:12;;;;;;;11.90;9.20;;;;;;;24.20;75.27;100983.26;133293;1303;22243;-76
2023/09/27 07:29:13;;;;;;;10.80;8.20;;;;;;;24.21;74.32;100985.28;133517;1304;22939;-77
2023/09/27 07:32:44;;;;;;;10.10;7.90;;;;;;;24.06;73.66;100985.62;133334;1304;22387;-76
2023/09/27 07:36:08;;;;;;;;;;;;;;;;;;;;;
2023/09/27 07:43:41;;;;;;;12.20;8.50;;;;;;;23.51;72.87;100976.30;133295;1300;22606;-76
2023/09/27 07:47:43;;;;;;;;;;;;;;;;;;;;;
2023/09/27 07:55:17;;;;;;;;;;;;;;;;;;;;;
2023/09/27 07:58:52;;;;;;;;;;;;;;;;;;;;;
2023/09/27 08:02:26;;;;;;;;;;;;;;;;;;;;;
2023/09/27 08:06:23;;;;;;;;;;;;;;;;;;;;;
2023/09/27 08:14:58;;;;;;;14.10;7.60;;;;;;;24.87;68.17;100993.67;133307;1301;22339;-76
2023/09/27 08:19:01;;;;;;;;;;;;;;;;;;;;;
2023/09/27 08:22:46;;;;;;;;;;;;;;;;;;;;;
2023/09/27 08:27:01;;;;;;;;;;;;;;;;;;;;;
2023/09/27 08:31:11;;;;;;;9.20;7.20;;;;;;;26.29;65.49;100994.86;133416;1304;22443;-76
2023/09/27 08:34:25;;;;;;;8.80;6.80;;;;;;;26.50;63.18;100993.25;133463;1304;22370;-77
2023/09/27 08:38:16;;;;;;;;;;;;;;;;;;;;;
2023/09/27 08:41:54;;;;;;;13.60;7.20;;;;;;;26.87;62.32;100993.80;133407;1301;23422;-76
2023/09/27 08:45:26;;;;;;;9.20;6.70;;;;;;;27.09;61.00;100994.04;133496;1301;22484;-77
2023/09/27 08:52:43;;;;;;;;;;;;;;;;;;;;;
2023/09/27 08:56:20;;;;;;;;;;;;;;;;;;;;;
2023/09/27 08:59:38;;;;;;;10.90;6.20;;;;;;;27.10;59.28;100989.27;133635;1301;23134;-76
2023/09/27 09:02:46;;;;;;;10.40;6.40;;;;;;;27.30;58.09;100985.05;133588;1301;22280;-76
2023/09/27 09:06:16;;;;;;;11.30;6.70;;;;;;;27.06;57.18;100984.98;133645;1301;22205;-77
2023/09/27 09:10:01;;;;;;;;;;;;;;;;;;;;;
2023/09/27 09:13:24;;;;;;;;;;;;;;;;;;;;;
2023/09/27 09:17:25;;;;;;;;;;;;;;;;;;;;;
2023/09/27 09:21:20;;;;;;;9.20;6.00;;;;;;;27.35;56.89;100985.97;133073;1304;23381;-77
2023/09/27 09:24:59;;;;;;;7.80;6.60;;;;;;;27.57;56.20;100983.61;133184;1305;23005;-75
2023/09/27 09:28:12;;;;;;;8.70;6.10;;;;;;;27.52;52.86;100974.46;133137;1300;22489;-81
2023/09/27 09:35:37;;;;;;;16.20;5.70;;;;;;;27.28;53.47;100968.77;132993;1305;22270;-80
2023/09/27 09:38:44;;;;;;;9.10;5.80;;;;;;;27.44;51.17;100965.07;133457;1301;22921;-78
2023/09/27 09:42:19;;;;;;;15.00;6.20;;;;;;;27.53;51.50;100972.34;133631;1301;22243;-78
2023/09/27 09:45:34;;;;;;;9.90;5.40;;;;;;;27.70;51.88;100974.13;133629;1301;22234;-79
2023/09/27 09:49:01;;;;;;;6.30;5.10;;;;;;;28.09;51.96;100973.55;133599;1301;22429;-80
2023/09/27 09:52:26;;;;;;;;;;;;;;;;;;;;;
2023/09/27 10:00:16;;;;;;;8.90;4.60;;;;;;;28.94;50.08;100966.35;133352;1301;22575;-79
2023/09/27 10:07:21;;;;;;;7.90;5.50;;;;;;;29.30;49.13;100958.91;133509;1301;22407;-78
2023/09/27 10:11:14;;;;;;;;;;;;;;;;;;;;;
2023/09/27 10:15:58;;;;;;;9.80;5.50;;;;;;;29.56;48.06;100962.27;133183;1303;22417;-78
2023/09/27 10:19:44;;;;;;;;;;;;;;;;;;;;;
2023/09/27 10:26:57;;;;;;;7.30;4.70;;;;;;;28.93;46.90;100952.48;133536;1308;22925;-79
2023/09/27 10:31:22;;;;;;;5.60;4.40;;;;;;;28.61;46.85;100952.64;133560;1301;23236;-78
2023/09/27 10:34:44;;;;;;;10.50;5.30;;;;;;;28.61;46.99;100949.15;133461;1301;23133;-80
2023/09/27 10:39:01;;;;;;;11.90;5.30;;;;;;;28.79;47.06;100943.80;133560;1291;22378;-80
2023/09/27 10:42:09;;;;;;;12.20;4.50;;;;;;;29.12;46.02;100934.79;133380;1304;23001;-80
2023/09/27 10:45:12;;;;;;;6.10;4.30;;;;;;;29.20;45.62;100931.20;133573;1303;22403;-78
2023/09/27 10:53:41;;;;;;;10.30;4.90;;;;;;;29.49;43.88;100925.96;133540;1301;22358;-80
2023/09/27 10:57:02;;;;;;;12.60;4.90;;;;;;;29.56;42.82;100924.38;133245;1301;22451;-79
2023/09/27 11:01:01;;;;;;;;;;;;;;;;;;;;;
2023/09/27 11:04:53;;;;;;;;;;;;;;;;;;;;;
2023/09/27 11:13:12;;;;;;;9.50;4.40;;;;;;;29.57;40.05;100891.73;133345;1308;22534;-80
2023/09/27 11:16:50;;;;;;;11.10;4.30;;;;;;;29.32;39.26;100890.81;133631;1302;22446;-78
2023/09/27 11:24:16;;;;;;;9.00;5.00;;;;;;;29.30;40.14;100887.75;133517;1301;22394;-79
2023/09/27 11:27:24;;;;;;;7.90;4.40;;;;;;;29.21;38.84;100879.98;133551;1304;22392;-78
2023/09/27 11:30:34;;;;;;;9.00;4.50;;;;;;;29.22;39.21;100879.33;133683;1301;22403;-79
2023/09/27 11:34:09;;;;;;;;;;;;;;;;;;;;;
2023/09/27 11:42:02;;;;;;;16.40;4.60;;;;;;;29.21;36.88;100865.77;133573;1302;22425;-78
2023/09/27 11:45:44;;;;;;;7.70;4.70;;;;;;;29.08;37.15;100859.94;133477;1304;22735;-78
2023/09/27 11:49:42;;;;;;;;;;;;;;;;;;;;;
2023/09/27 12:00:51;;;;;;;;;;;;;;;;;;;;;
2023/09/27 12:04:20;;;;;;;10.00;5.00;;;;;;;28.83;37.84;100842.02;133501;1301;23087;-77
2023/09/27 12:07:43;;;;;;;8.80;4.30;;;;;;;28.66;37.37;100835.77;133545;1302;22436;-77
2023/09/27 12:10:52;;;;;;;9.80;4.70;;;;;;;28.71;38.17;100831.95;133424;1304;22863;-77
2023/09/27 12:14:07;;;;;;;9.50;4.20;;;;;;;28.87;38.17;100835.52;133537;1304;23092;-77
2023/09/27 12:17:53;;;;;;;9.60;4.70;;;;;;;28.88;38.17;100832.24;133353;1303;22486;-78
2023/09/27 12:21:29;;;;;;;11.70;5.00;;;;;;;28.72;37.69;100828.08;133320;1302;22435;-77
2023/09/27 12:27:54;;;;;;;14.30;4.60;;;;;;;28.46;38.61;100819.94;133161;1304;22494;-77
2023/09/27 12:31:22;;;;;;;7.20;4.00;;;;;;;28.44;38.31;100817.27;133351;1303;23190;-77
2023/09/27 12:34:32;;;;;;;12.50;4.90;;;;;;;28.38;37.79;100810.17;133398;1304;22473;-78
2023/09/27 12:37:36;;;;;;;12.70;4.30;;;;;;;28.44;38.28;100810.91;133386;1303;23096;-77
2023/09/27 12:41:33;;;;;;;;;;;;;;;;;;;;;
2023/09/27 12:48:18;;;;;;;10.10;4.80;;;;;;;28.24;37.13;100796.96;133365;1304;22468;-77
2023/09/27 12:51:32;;;;;;;7.80;4.10;;;;;;;28.13;36.60;100793.98;133410;1303;22439;-78
2023/09/27 12:54:33;;;;;;;14.10;4.90;;;;;;;27.92;36.76;100793.85;133404;1302;22215;-78
2023/09/27 12:57:37;;;;;;;13.20;5.20;;;;;;;27.88;37.88;100792.86;133458;1300;22439;-77
2023/09/27 13:00:47;;;;;;;9.80;4.50;;;;;;;27.87;37.85;100795.41;133451;1303;22453;-76
2023/09/27 13:03:48;;;;;;;12.30;4.90;;;;;;;27.83;38.36;100799.20;133444;1304;22401;-78
2023/09/27 13:07:03;;;;;;;13.80;4.70;;;;;;;27.68;38.34;100791.67;133349;1303;22186;-79
2023/09/27 13:10:47;;;;;;;12.00;4.80;;;;;;;27.59;38.53;100785.31;133426;1301;22252;-80
2023/09/27 13:14:11;;;;;;;12.60;4.80;;;;;;;27.44;38.96;100781.40;133484;1303;22294;-79
2023/09/27 13:17:24;;;;;;;;;;;;;;;;;;;;;
2023/09/27 13:20:34;;;;;;;8.80;4.80;;;;;;;27.35;39.18;100772.62;133213;1303;22486;-78
2023/09/27 13:23:58;;;;;;;10.90;5.20;;;;;;;27.29;38.76;100768.49;133495;1297;23249;-78
2023/09/27 13:27:09;;;;;;;11.20;5.30;;;;;;;27.16;39.46;100764.80;133471;1301;22439;-78
2023/09/27 13:30:20;;;;;;;7.80;4.70;;;;;;;27.06;39.41;100761.11;133522;1303;22497;-79
2023/09/27 13:33:34;;;;;;;6.90;4.90;;;;;;;27.07;39.58;100760.67;133425;1303;22469;-79
2023/09/27 13:36:47;;;;;;;8.60;5.30;;;;;;;27.07;39.51;100756.48;133456;1302;22493;-78
2023/09/27 13:40:22;;;;;;;;;;;;;;;;;;;;;
2023/09/27 13:43:56;;;;;;;15.20;4.70;;;;;;;26.87;38.99;100755.45;133456;1302;22412;-78
2023/09/27 13:47:17;;;;;;;12.60;5.00;;;;;;;26.71;38.53;100746.55;133476;1301;22208;-79
2023/09/27 13:50:31;;;;;;;;;;;;;;;;;;;;;
2023/09/27 13:53:45;;;;;;;10.60;4.30;;;;;;;26.62;38.45;100743.55;133382;1303;22488;-78
2023/09/27 13:56:49;;;;;;;12.40;4.70;;;;;;;26.58;38.38;100740.29;133564;1300;22384;-78
2023/09/27 13:59:59;;;;;;;10.10;4.90;;;;;;;26.56;39.29;100737.23;133567;1303;22370;-78
2023/09/27 14:03:09;;;;;;;8.10;4.30;;;;;;;26.57;39.72;100740.01;133568;1304;23130;-78
2023/09/27 14:06:24;;;;;;;12.80;4.70;;;;;;;26.53;39.48;100735.50;133543;1303;22396;-78
2023/09/27 14:09:43;;;;;;;9.60;4.80;;;;;;;26.52;38.98;100733.05;133569;1303;22200;-78
2023/09/27 14:13:14;;;;;;;14.30;4.90;;;;;;;26.49;39.42;100730.17;133634;1300;22490;-78
2023/09/27 14:19:55;;;;;;;11.70;4.60;;;;;;;26.09;39.74;100722.03;133621;1307;22227;-78
2023/09/27 14:23:36;;;;;;;11.40;4.60;;;;;;;26.04;40.19;100717.02;133577;1300;22457;-80
2023/09/27 14:27:07;;;;;;;13.70;4.90;;;;;;;25.96;40.19;100717.42;133566;1303;23366;-78
2023/09/27 14:30:14;;;;;;;10.80;4.40;;;;;;;25.85;40.36;100717.17;133586;1306;22454;-79
2023/09/27 14:33:15;;;;;;;9.80;4.30;;;;;;;25.85;39.96;100711.27;133395;1303;22403;-78
2023/09/27 14:36:21;;;;;;;7.60;4.40;;;;;;;25.90;40.03;100706.80;133599;1300;22437;-78
2023/09/27 14:39:33;;;;;;;10.20;4.50;;;;;;;25.91;40.29;100709.27;133440;1304;23070;-78
2023/09/27 14:43:28;;;;;;;;;;;;;;;;;;;;;
2023/09/27 14:47:08;;;;;;;7.30;4.10;;;;;;;25.71;40.79;100705.58;133359;1300;22410;-78
2023/09/27 14:50:28;;;;;;;;;;;;;;;;;;;;;
2023/09/27 14:53:59;;;;;;;;;;;;;;;25.49;41.18;100704.86;133423;1302;22480;-77
2023/09/27 14:57:06;;;;;;;14.70;4.40;;;;;;;25.42;41.48;100702.06;133587;1303;23108;-77
2023/09/27 15:00:25;;;;;;;10.60;4.70;;;;;;;25.41;41.48;100699.70;133606;1301;22207;-77
2023/09/27 15:03:31;;;;;;;7.40;4.50;;;;;;;25.40;41.39;100694.77;133575;1306;22224;-79
2023/09/27 15:07:09;;;;;;;10.90;4.70;;;;;;;25.35;41.62;100689.31;133404;1301;22164;-77
2023/09/27 15:10:22;;;;;;;7.30;4.60;;;;;;;25.31;41.68;100686.04;133379;1303;22377;-77
2023/09/27 15:13:23;;;;;;;12.50;4.10;;;;;;;25.30;41.88;100685.38;133576;1301;22255;-77
2023/09/27 15:16:30;;;;;;;7.80;3.90;;;;;;;25.29;42.12;100683.84;133645;1303;22378;-78
2023/09/27 15:19:51;;;;;;;12.00;4.70;;;;;;;25.25;42.32;100686.39;133558;1303;22391;-77
2023/09/27 15:23:15;;;;;;;9.60;4.50;;;;;;;25.14;42.56;100686.48;133565;1302;22239;-77
2023/09/27 15:26:19;;;;;;;13.40;4.10;;;;;;;25.04;42.89;100688.02;133585;1301;22435;-79
2023/09/27 15:29:38;;;;;;;10.90;4.30;;;;;;;24.98;43.03;100687.75;133371;1301;22479;-78
2023/09/27 15:33:15;;;;;;;;;;;;;;;;;;;;;
2023/09/27 15:36:51;;;;;;;11.00;4.30;;;;;;;24.69;43.51;100685.85;133550;1301;23074;-77
2023/09/27 15:40:01;;;;;;;12.20;4.70;;;;;;;24.54;43.94;100685.70;133478;1301;23022;-77
2023/09/27 15:43:22;;;;;;;11.20;4.30;;;;;;;24.42;44.16;100682.05;133589;1301;22205;-78
2023/09/27 15:47:00;;;;;;;;;;;;;;;;;;;;;
2023/09/27 15:50:05;;;;;;;10.00;5.00;;;;;;;24.24;44.60;100689.14;133570;1294;22286;-78
2023/09/27 15:53:08;;;;;;;11.00;4.50;;;;;;;24.14;44.81;100686.81;133488;1301;22447;-75
2023/09/27 15:56:30;;;;;;;11.30;4.50;;;;;;;24.05;45.15;100676.78;133359;1304;22201;-77
2023/09/27 15:59:47;;;;;;;8.30;4.80;;;;;;;23.92;45.45;100674.52;133502;1301;22388;-78
2023/09/27 16:03:34;;;;;;;;;;;;;;;;;;;;;
2023/09/27 16:07:49;;;;;;;9.70;4.40;;;;;;;23.72;45.97;100679.20;133546;1303;23074;-78
2023/09/27 16:10:44;;;;;;;13.70;4.50;;;;;;;23.60;46.23;100677.09;133435;1301;22495;-79
2023/09/27 16:13:50;;;;;;;11.40;4.90;;;;;;;23.46;46.58;100676.54;133545;1302;22200;-78
2023/09/27 16:17:04;;;;;;;10.00;4.60;;;;;;;23.34;46.82;100677.60;133564;1307;23302;-77
2023/09/27 16:20:25;;;;;;;11.70;5.20;;;;;;;23.24;46.96;100677.27;133534;1302;23235;-81
2023/09/27 16:23:47;;;;;;;11.60;6.90;;;;;;;23.12;47.15;100679.27;133504;1304;22323;-76
2023/09/27 16:27:04;;;;;;;;;;;;;;;;;;;;;
2023/09/27 16:30:10;;;;;;;10.00;6.50;;;;;;;22.89;47.65;100676.77;133465;1307;22418;-76
2023/09/27 16:33:52;;;;;;;9.90;4.70;;;;;;;22.78;48.19;100676.02;133516;1301;22454;-76
2023/09/27 16:37:20;;;;;;;;;;;;;;;;;;;;;
2023/09/27 16:40:54;;;;;;;;;;;;;;;;;;;;;
2023/09/27 16:44:13;;;;;;;8.50;5.10;;;;;;;22.35;48.69;100681.54;132956;1306;22266;-79
2023/09/27 16:47:20;;;;;;;10.60;4.90;;;;;;;22.20;49.16;100677.42;132942;1305;22350;-75
2023/09/27 16:50:28;;;;;;;13.20;5.20;;;;;;;22.05;49.46;100675.83;132897;1302;22415;-72
2023/09/27 16:53:44;;;;;;;15.60;5.90;;;;;;;21.89;49.75;100674.86;132924;1306;22461;-72
2023/09/27 16:56:47;;;;;;;14.00;5.20;;;;;;;21.72;50.08;100673.96;132916;1307;22286;-72
2023/09/27 16:59:48;;;;;;;10.90;5.10;;;;;;;21.60;50.38;100674.16;132894;1306;22424;-72
2023/09/27 17:02:53;;;;;;;8.50;5.10;;;;;;;21.46;50.54;100676.35;132892;1306;23317;-73
2023/09/27 17:06:07;;;;;;;;;;;;;;;;;;;;;
2023/09/27 17:09:14;;;;;;;11.60;4.90;;;;;;;21.19;51.21;100677.43;133353;1303;22392;-72
2023/09/27 17:12:15;;;;;;;9.50;5.30;;;;;;;21.03;51.58;100677.13;133459;1301;22806;-72
2023/09/27 17:15:16;;;;;;;13.30;4.90;;;;;;;20.86;51.99;100680.31;133508;1301;23077;-74
2023/09/27 17:18:20;;;;;;;12.30;6.30;;;;;;;20.64;52.48;100683.33;133418;1302;22372;-73
2023/09/27 17:21:21;;;;;;;15.80;7.90;;;;;;;20.46;52.92;100680.14;133497;1301;22378;-73
2023/09/27 17:27:49;;;;;;;20.00;12.00;;;;;;;20.12;53.75;100687.39;133342;1302;23304;-72
2023/09/27 17:30:56;;;;;;;19.10;12.50;;;;;;;19.98;54.27;100687.22;133523;1301;22449;-72
2023/09/27 17:33:57;;;;;;;21.40;14.80;;;;;;;19.83;54.67;100690.27;133527;1301;22769;-72
2023/09/27 17:37:01;;;;;;;21.30;12.80;;;;;;;19.63;55.00;100690.77;133509;1301;22450;-74
2023/09/27 17:40:07;;;;;;;17.80;11.80;;;;;;;19.49;55.57;100688.84;133508;1301;22443;-72
2023/09/27 17:43:22;;;;;;;;;;;;;;;;;;;;;
2023/09/27 17:46:27;;;;;;;17.30;11.00;;;;;;;19.22;56.35;100693.20;133549;1301;22519;-75
2023/09/27 17:49:31;;;;;;;24.10;12.60;;;;;;;19.06;56.84;100698.23;133490;1301;23178;-72
2023/09/27 17:52:35;;;;;;;14.90;10.50;;;;;;;18.93;57.34;100696.63;133531;1307;22330;-72
2023/09/27 17:55:37;;;;;;;11.70;7.80;;;;;;;18.76;58.00;100697.94;133507;1301;22441;-73
2023/09/27 17:58:42;;;;;;;11.10;7.10;;;;;;;18.56;58.54;100703.53;133328;1303;22396;-72
2023/09/27 18:01:47;;;;;;;18.00;7.60;;;;;;;18.31;59.16;100704.55;133535;1304;22460;-73
2023/09/27 18:05:14;;;;;;;11.20;8.00;;;;;;;18.12;59.73;100705.17;133572;1303;22432;-71
2023/09/27 18:08:32;;;;;;;;;;;;;;;;;;;;;
2023/09/27 18:11:33;;;;;;;13.30;6.80;;;;;;;17.82;60.74;100704.93;133471;1302;22338;-72
2023/09/27 18:14:42;;;;;;;11.20;6.60;;;;;;;17.69;61.04;100707.98;133458;1301;23099;-73
2023/09/27 18:17:53;;;;;;;10.60;6.00;;;;;;;17.58;61.45;100709.95;133531;1301;22501;-72
2023/09/27 18:21:10;;;;;;;14.20;7.20;;;;;;;17.50;61.82;100713.50;133498;1301;22388;-72
2023/09/27 18:24:44;;;;;;;10.70;7.20;;;;;;;17.48;61.94;100717.95;133537;1302;23132;-73
2023/09/27 18:28:00;;;;;;;9.50;6.70;;;;;;;17.48;62.08;100715.81;133538;1301;22456;-73
2023/09/27 18:31:10;;;;;;;11.00;6.30;;;;;;;17.48;62.27;100717.42;133565;1301;22455;-73
2023/09/27 18:34:13;;;;;;;11.30;6.60;;;;;;;17.47;62.52;100719.39;133519;1305;22501;-73
2023/09/27 18:37:17;;;;;;;10.10;5.90;;;;;;;17.44;62.55;100719.94;133311;1303;22514;-72
2023/09/27 18:40:19;;;;;;;9.40;6.10;;;;;;;17.43;62.71;100716.64;133513;1300;22485;-72
2023/09/27 18:43:25;;;;;;;14.80;6.40;;;;;;;17.42;62.84;100718.73;133572;1304;22409;-72
2023/09/27 18:46:26;;;;;;;10.40;6.40;;;;;;;17.41;62.88;100714.96;133554;1305;22314;-73
2023/09/27 18:49:34;;;;;;;12.40;6.70;;;;;;;17.39;63.05;100718.50;133534;1301;22664;-72
2023/09/27 18:52:41;;;;;;;9.80;6.40;;;;;;;17.35;63.18;100718.03;132693;1297;1155912;-72
2023/09/27 18:56:18;;;;;;;11.90;6.90;;;;;;;17.34;63.31;100716.61;133528;1308;22297;-75
2023/09/27 18:59:22;;;;;;;8.80;6.20;;;;;;;17.31;63.38;100716.85;133541;1302;22440;-72
2023/09/27 19:02:25;;;;;;;9.40;6.50;;;;;;;17.29;63.52;100714.64;133318;1308;22473;-73